createdAt,value
2016-10-16T11:34:24.425Z,1022.4
2016-10-16T11:34:49.978Z,1022.35
2016-10-16T11:35:15.537Z,1022.38
2016-10-16T11:35:41.091Z,1022.4
2016-10-16T11:36:06.694Z,1022.32
2016-10-16T11:36:32.282Z,1022.33
2016-10-16T11:36:57.917Z,1022.34
2016-10-16T11:37:23.485Z,1022.31
2016-10-16T11:37:49.034Z,1022.36
2016-10-16T11:38:14.605Z,1022.35
2016-10-16T11:38:40.244Z,1022.32
2016-10-16T11:39:05.783Z,1022.36
2016-10-16T11:39:31.334Z,1022.34
2016-10-16T11:39:56.917Z,1022.33
2016-10-16T11:40:22.480Z,1022.39
2016-10-16T11:40:48.071Z,1022.32
2016-10-16T11:41:13.617Z,1022.3
2016-10-16T11:41:39.204Z,1022.3
2016-10-16T11:42:04.778Z,1022.32
2016-10-16T11:42:30.329Z,1022.29
2016-10-16T11:42:55.887Z,1022.32
2016-10-16T11:43:21.454Z,1022.31
2016-10-16T11:43:47.029Z,1022.3
2016-10-16T11:44:12.595Z,1022.33
2016-10-16T11:44:38.229Z,1022.31
2016-10-16T11:45:03.810Z,1022.33
2016-10-16T11:45:29.425Z,1022.27
2016-10-16T11:45:55.079Z,1022.29
2016-10-16T11:46:20.641Z,1022.33
2016-10-16T11:46:46.281Z,1022.34
2016-10-16T11:47:11.887Z,1022.31
2016-10-16T11:47:37.462Z,1022.36
2016-10-16T11:48:03.031Z,1022.3
2016-10-16T11:48:28.630Z,1022.35
2016-10-16T11:48:54.223Z,1022.35
2016-10-16T11:49:19.777Z,1022.34
2016-10-16T11:49:45.326Z,1022.33
2016-10-16T11:50:11.011Z,1022.35
2016-10-16T11:50:36.596Z,1022.33
2016-10-16T11:51:02.166Z,1022.31
2016-10-16T11:51:27.814Z,1022.3
2016-10-16T11:51:53.458Z,1022.34
2016-10-16T11:52:19.015Z,1022.38
2016-10-16T11:52:44.686Z,1022.37
2016-10-16T11:53:10.258Z,1022.3
2016-10-16T11:53:35.820Z,1022.32
2016-10-16T11:54:01.430Z,1022.35
2016-10-16T11:54:27.076Z,1022.32
2016-10-16T11:54:52.643Z,1022.36
2016-10-16T11:55:18.254Z,1022.35
2016-10-16T11:55:43.805Z,1022.33
2016-10-16T11:56:09.349Z,1022.35
2016-10-16T11:56:34.906Z,1022.31
2016-10-16T11:57:00.487Z,1022.27
2016-10-16T11:57:26.057Z,1022.35
2016-10-16T11:57:51.610Z,1022.3
2016-10-16T11:58:17.297Z,1022.32
2016-10-16T11:58:42.860Z,1022.35
2016-10-16T11:59:08.407Z,1022.3
2016-10-16T11:59:33.998Z,1022.32
2016-10-16T11:59:59.553Z,1022.29
2016-10-16T12:00:25.136Z,1022.29
2016-10-16T12:00:50.718Z,1022.33
2016-10-16T12:01:16.295Z,1022.34
2016-10-16T12:01:41.866Z,1022.3
2016-10-16T12:02:07.417Z,1022.32
2016-10-16T12:02:32.976Z,1022.3
2016-10-16T12:02:58.571Z,1022.32
2016-10-16T12:03:24.156Z,1022.28
2016-10-16T12:03:49.716Z,1022.32
2016-10-16T12:04:15.291Z,1022.32
2016-10-16T12:04:41.006Z,1022.34
2016-10-16T12:05:06.607Z,1022.32
2016-10-16T12:05:32.209Z,1022.32
2016-10-16T12:05:57.838Z,1022.3
2016-10-16T12:06:23.489Z,1022.37
2016-10-16T12:06:49.051Z,1022.36
2016-10-16T12:07:14.636Z,1022.33
2016-10-16T12:07:40.278Z,1022.33
2016-10-16T12:08:05.842Z,1022.33
2016-10-16T12:08:31.435Z,1022.34
2016-10-16T12:08:56.999Z,1022.3
2016-10-16T12:09:22.556Z,1022.34
2016-10-16T12:09:48.119Z,1022.33
2016-10-16T12:10:13.711Z,1022.31
2016-10-16T12:10:39.283Z,1022.32
2016-10-16T12:11:04.858Z,1022.33
2016-10-16T12:11:30.412Z,1022.31
2016-10-16T12:11:55.993Z,1022.26
2016-10-16T12:12:21.558Z,1022.28
2016-10-16T12:12:47.123Z,1022.28
2016-10-16T12:13:12.697Z,1022.33
2016-10-16T12:13:38.260Z,1022.28
2016-10-16T12:14:03.852Z,1022.33
2016-10-16T12:14:29.417Z,1022.29
2016-10-16T12:14:55.059Z,1022.27
2016-10-16T12:15:20.615Z,1022.29
2016-10-16T12:15:46.195Z,1022.26
2016-10-16T12:16:11.798Z,1022.25
2016-10-16T12:16:37.382Z,1022.28
2016-10-16T12:17:02.958Z,1022.28
2016-10-16T12:17:28.588Z,1022.3
2016-10-16T12:17:54.182Z,1022.23
2016-10-16T12:18:19.736Z,1022.25
2016-10-16T12:18:45.295Z,1022.28
2016-10-16T12:19:10.881Z,1022.29
2016-10-16T12:19:36.440Z,1022.24
2016-10-16T12:20:02.022Z,1022.26
2016-10-16T12:20:27.604Z,1022.29
2016-10-16T12:20:53.171Z,1022.31
2016-10-16T12:21:18.718Z,1022.28
2016-10-16T12:21:44.282Z,1022.31
2016-10-16T12:22:09.841Z,1022.25
2016-10-16T12:22:35.481Z,1022.29
2016-10-16T12:23:01.056Z,1022.31
2016-10-16T12:23:26.649Z,1022.29
2016-10-16T12:23:52.180Z,1022.32
2016-10-16T12:24:17.778Z,1022.31
2016-10-16T12:24:43.387Z,1022.28
2016-10-16T12:25:08.950Z,1022.28
2016-10-16T12:25:34.516Z,1022.29
2016-10-16T12:26:00.123Z,1022.32
2016-10-16T12:26:25.745Z,1022.29
2016-10-16T12:26:51.307Z,1022.28
2016-10-16T12:27:16.876Z,1022.29
2016-10-16T12:27:42.450Z,1022.3
2016-10-16T12:28:07.997Z,1022.28
2016-10-16T12:30:57.886Z,1022.23
2016-10-16T12:31:31.731Z,1022.22
2016-10-16T12:31:57.353Z,1022.23
2016-10-16T12:32:22.920Z,1022.22
2016-10-16T12:32:48.511Z,1022.21
2016-10-16T12:33:14.064Z,1022.22
2016-10-16T12:33:39.626Z,1022.2
2016-10-16T12:34:05.245Z,1022.18
2016-10-16T12:34:30.838Z,1022.15
2016-10-16T12:34:56.475Z,1022.17
2016-10-16T12:35:22.108Z,1022.19
2016-10-16T12:35:47.674Z,1022.21
2016-10-16T12:36:13.231Z,1022.18
2016-10-16T12:36:38.779Z,1022.24
2016-10-16T12:37:04.322Z,1022.19
2016-10-16T12:37:29.911Z,1022.25
2016-10-16T12:37:55.512Z,1022.24
2016-10-16T12:38:21.093Z,1022.2
2016-10-16T12:38:46.665Z,1022.17
2016-10-16T12:39:12.269Z,1022.2
2016-10-16T12:39:37.856Z,1022.2
2016-10-16T12:40:03.514Z,1022.22
2016-10-16T12:41:06.735Z,1022.19
2016-10-16T12:41:32.297Z,1022.2
2016-10-16T12:41:57.882Z,1022.2
2016-10-16T12:42:23.467Z,1022.21
2016-10-16T12:42:49.062Z,1022.18
2016-10-16T12:43:14.611Z,1022.2
2016-10-16T12:43:40.165Z,1022.18
2016-10-16T12:44:05.875Z,1022.22
2016-10-16T12:44:31.491Z,1022.24
2016-10-16T12:44:57.066Z,1022.21
2016-10-16T12:45:22.703Z,1022.24
2016-10-16T12:45:48.291Z,1022.22
2016-10-16T12:46:13.883Z,1022.22
2016-10-16T12:46:39.436Z,1022.16
2016-10-16T12:47:05.125Z,1022.2
2016-10-16T12:47:30.693Z,1022.18
2016-10-16T12:47:56.243Z,1022.21
2016-10-16T12:48:21.816Z,1022.18
2016-10-16T12:48:47.356Z,1022.19
2016-10-16T12:49:12.920Z,1022.16
2016-10-16T12:49:38.507Z,1022.14
2016-10-16T12:50:04.057Z,1022.18
2016-10-16T12:50:29.638Z,1022.2
2016-10-16T12:50:55.203Z,1022.14
2016-10-16T12:51:20.783Z,1022.17
2016-10-16T12:51:46.366Z,1022.18
2016-10-16T12:52:11.975Z,1022.15
2016-10-16T12:52:37.537Z,1022.16
2016-10-16T12:53:03.115Z,1022.16
2016-10-16T12:53:28.686Z,1022.14
2016-10-16T12:53:54.270Z,1022.14
2016-10-16T12:54:19.805Z,1022.1
2016-10-16T12:54:45.384Z,1022.18
2016-10-16T12:55:11.001Z,1022.12
2016-10-16T12:55:36.564Z,1022.18
2016-10-16T12:56:02.164Z,1022.14
2016-10-16T12:56:27.721Z,1022.17
2016-10-16T12:56:53.276Z,1022.15
2016-10-16T12:57:18.851Z,1022.18
2016-10-16T12:58:16.966Z,1022.15
2016-10-16T12:58:42.522Z,1022.13
2016-10-16T12:59:08.097Z,1022.11
2016-10-16T12:59:33.653Z,1022.16
2016-10-16T12:59:59.234Z,1022.12
2016-10-16T13:00:24.787Z,1022.15
2016-10-16T13:00:50.343Z,1022.15
2016-10-16T13:01:15.927Z,1022.12
2016-10-16T13:01:41.503Z,1022.14
2016-10-16T13:02:07.069Z,1022.13
2016-10-16T13:02:32.639Z,1022.11
2016-10-16T13:02:58.243Z,1022.15
2016-10-16T13:03:23.808Z,1022.16
2016-10-16T13:03:49.368Z,1022.15
2016-10-16T13:04:14.938Z,1022.16
2016-10-16T13:04:40.520Z,1022.15
2016-10-16T13:05:06.085Z,1022.13
2016-10-16T13:05:31.787Z,1022.15
2016-10-16T13:05:57.384Z,1022.21
2016-10-16T13:06:22.988Z,1022.17
2016-10-16T13:06:48.532Z,1022.19
2016-10-16T13:07:14.095Z,1022.12
2016-10-16T13:07:39.687Z,1022.16
2016-10-16T13:08:05.234Z,1022.17
2016-10-16T13:08:30.799Z,1022.15
2016-10-16T13:08:56.364Z,1022.18
2016-10-16T13:09:21.986Z,1022.21
2016-10-16T13:09:47.543Z,1022.26
2016-10-16T13:10:13.104Z,1022.21
2016-10-16T13:10:38.664Z,1022.23
2016-10-16T13:11:04.242Z,1022.24
2016-10-16T13:11:29.808Z,1022.27
2016-10-16T13:11:55.362Z,1022.27
2016-10-16T13:12:20.964Z,1022.2
2016-10-16T13:12:46.544Z,1022.21
2016-10-16T13:14:09.216Z,1022.15
2016-10-16T13:14:34.844Z,1022.13
2016-10-16T13:15:00.421Z,1022.13
2016-10-16T13:15:25.997Z,1022.1
2016-10-16T13:15:51.888Z,1022.14
2016-10-16T13:16:17.477Z,1022.12
2016-10-16T13:16:43.166Z,1022.15
2016-10-16T13:17:09.213Z,1022.07
2016-10-16T13:17:34.773Z,1022.08
2016-10-16T13:18:00.985Z,1022.09
2016-10-16T13:18:26.546Z,1022.07
2016-10-16T13:18:52.106Z,1022.04
2016-10-16T13:19:18.336Z,1022.03
2016-10-16T13:19:43.896Z,1022.08
2016-10-16T13:20:10.155Z,1022.07
2016-10-16T13:20:35.734Z,1022.09
2016-10-16T13:21:01.900Z,1022.08
2016-10-16T13:21:27.444Z,1022.05
2016-10-16T13:21:53.008Z,1022.1
2016-10-16T13:22:19.316Z,1022.09
2016-10-16T13:22:44.883Z,1022.11
2016-10-16T13:23:11.076Z,1022.1
2016-10-16T13:23:36.636Z,1022.12
2016-10-16T13:24:02.220Z,1022.08
2016-10-16T13:24:28.401Z,1022.11
2016-10-16T13:24:53.964Z,1022.14
2016-10-16T13:25:20.214Z,1022.14
2016-10-16T13:25:45.786Z,1022.14
2016-10-16T13:26:11.956Z,1022.15
2016-10-16T13:26:37.556Z,1022.1
2016-10-16T13:27:03.121Z,1022.14
2016-10-16T13:27:29.372Z,1022.12
2016-10-16T13:27:54.930Z,1022.11
2016-10-16T13:28:21.135Z,1022.14
2016-10-16T13:28:46.767Z,1022.1
2016-10-16T13:29:12.409Z,1022.1
2016-10-16T13:29:40.480Z,1022.09
2016-10-16T13:30:06.949Z,1022.14
2016-10-16T13:30:32.550Z,1022.12
2016-10-16T13:30:58.135Z,1022.1
2016-10-16T13:31:23.699Z,1022.06
2016-10-16T13:31:49.258Z,1022.1
2016-10-16T13:33:07.885Z,1022.09
2016-10-16T13:33:33.440Z,1022.05
2016-10-16T13:33:58.977Z,1022.1
2016-10-16T13:34:24.564Z,1022.14
2016-10-16T13:34:50.224Z,1022.1
2016-10-16T13:35:15.779Z,1022.14
2016-10-16T13:35:41.353Z,1022.11
2016-10-16T13:36:07.053Z,1022.13
2016-10-16T13:36:32.651Z,1022.11
2016-10-16T13:36:58.186Z,1022.14
2016-10-16T13:38:16.923Z,1022.1
2016-10-16T13:38:42.468Z,1022.09
2016-10-16T13:39:08.032Z,1022.1
2016-10-16T13:39:33.634Z,1022.12
2016-10-16T13:39:59.219Z,1022.07
2016-10-16T13:40:24.792Z,1022.08
2016-10-16T13:40:50.421Z,1022.08
2016-10-16T13:41:15.969Z,1022.09
2016-10-16T13:41:41.530Z,1022.09
2016-10-16T13:42:07.114Z,1022.06
2016-10-16T13:42:32.828Z,1022.11
2016-10-16T13:42:58.397Z,1022.08
2016-10-16T13:43:23.960Z,1022.11
2016-10-16T13:43:49.659Z,1022.09
2016-10-16T13:44:15.245Z,1022.08
2016-10-16T13:44:40.821Z,1022.1
2016-10-16T13:45:06.408Z,1022.05
2016-10-16T13:45:32.000Z,1022.12
2016-10-16T13:45:57.557Z,1022.08
2016-10-16T13:46:23.165Z,1022.08
2016-10-16T13:46:48.808Z,1022.11
2016-10-16T13:47:14.369Z,1022.09
2016-10-16T13:47:39.941Z,1022.12
2016-10-16T13:48:05.531Z,1022.09
2016-10-16T13:48:31.184Z,1022.08
2016-10-16T13:48:56.752Z,1022.06
2016-10-16T13:49:22.549Z,1022.07
2016-10-16T13:49:48.158Z,1022.1
2016-10-16T13:50:13.746Z,1022.08
2016-10-16T13:50:39.307Z,1022.09
2016-10-16T13:51:04.861Z,1022.13
2016-10-16T13:51:30.446Z,1022.07
2016-10-16T13:51:56.019Z,1022.08
2016-10-16T13:52:21.783Z,1022.09
2016-10-16T13:52:47.375Z,1022.1
2016-10-16T13:53:13.062Z,1022.11
2016-10-16T13:53:38.610Z,1022.09
2016-10-16T13:54:04.168Z,1022.01
2016-10-16T13:54:29.764Z,1022.04
2016-10-16T13:54:55.356Z,1022.04
2016-10-16T13:55:53.462Z,1022.02
2016-10-16T13:56:19.016Z,1022.04
2016-10-16T13:56:44.602Z,1022.01
2016-10-16T13:57:10.178Z,1022.02
2016-10-16T13:57:35.741Z,1022
2016-10-16T13:58:01.292Z,1022.03
2016-10-16T13:58:27.145Z,1022.06
2016-10-16T13:58:52.674Z,1022.07
2016-10-16T13:59:18.244Z,1022.04
2016-10-16T13:59:43.815Z,1022.05
2016-10-16T14:00:09.384Z,1022.01
2016-10-16T14:00:34.954Z,1022.05
2016-10-16T14:01:00.516Z,1022.02
2016-10-16T14:01:26.082Z,1021.99
2016-10-16T14:01:51.660Z,1021.98
2016-10-16T14:02:17.302Z,1021.98
2016-10-16T14:02:42.857Z,1021.97
2016-10-16T14:03:08.424Z,1022.01
2016-10-16T14:03:34.110Z,1021.96
2016-10-16T14:03:59.675Z,1022
2016-10-16T14:04:25.248Z,1021.98
2016-10-16T14:04:50.819Z,1021.98
2016-10-16T14:05:16.381Z,1021.96
2016-10-16T14:05:41.967Z,1021.99
2016-10-16T14:06:07.527Z,1021.98
2016-10-16T14:06:33.148Z,1022.02
2016-10-16T14:06:58.731Z,1022.02
2016-10-16T14:07:24.312Z,1022
2016-10-16T14:07:49.892Z,1022.02
2016-10-16T14:08:15.451Z,1022.02
2016-10-16T14:08:41.861Z,1022.03
2016-10-16T14:09:07.439Z,1022.03
2016-10-16T14:09:33.055Z,1022.01
2016-10-16T14:09:58.627Z,1022.04
2016-10-16T14:10:24.213Z,1022.01
2016-10-16T14:10:49.809Z,1021.98
2016-10-16T14:11:15.364Z,1022.01
2016-10-16T14:11:41.036Z,1021.99
2016-10-16T14:12:06.596Z,1022.05
2016-10-16T14:12:32.173Z,1022.04
2016-10-16T14:12:57.828Z,1022.02
2016-10-16T14:13:23.401Z,1022.01
2016-10-16T14:13:48.956Z,1022.02
2016-10-16T14:14:14.665Z,1022.04
2016-10-16T14:14:40.243Z,1022.05
2016-10-16T14:15:05.844Z,1022.1
2016-10-16T14:15:31.473Z,1022.08
2016-10-16T14:15:57.049Z,1022.1
2016-10-16T14:17:15.675Z,1022.1
2016-10-16T14:17:41.270Z,1022.12
2016-10-16T14:18:06.852Z,1022.12
2016-10-16T14:18:32.419Z,1022.07
2016-10-16T14:18:58.053Z,1022.1
2016-10-16T14:19:23.646Z,1022.11
2016-10-16T14:19:49.219Z,1022.12
2016-10-16T14:20:14.781Z,1022.15
2016-10-16T14:20:40.353Z,1022.16
2016-10-16T14:21:05.989Z,1022.11
2016-10-16T14:21:31.539Z,1022.09
2016-10-16T14:21:57.120Z,1022.07
2016-10-16T14:22:22.819Z,1022.09
2016-10-16T14:22:48.389Z,1022.07
2016-10-16T14:23:13.957Z,1022.1
2016-10-16T14:23:39.585Z,1022.07
2016-10-16T14:24:05.112Z,1022.08
2016-10-16T14:24:30.674Z,1022.08
2016-10-16T14:24:56.296Z,1022.08
2016-10-16T14:25:21.918Z,1022.08
2016-10-16T14:25:47.820Z,1022.06
2016-10-16T14:26:13.445Z,1022.06
2016-10-16T14:26:39.024Z,1022.07
2016-10-16T14:27:04.629Z,1022.09
2016-10-16T14:27:30.238Z,1022.04
2016-10-16T14:27:55.867Z,1022.07
2016-10-16T14:28:21.546Z,1022.04
2016-10-16T14:28:47.112Z,1021.99
2016-10-16T14:29:12.674Z,1022.03
2016-10-16T14:30:16.172Z,1022.03
2016-10-16T14:30:41.834Z,1022.02
2016-10-16T14:31:07.376Z,1022.01
2016-10-16T14:31:32.966Z,1022
2016-10-16T14:31:58.585Z,1022.07
2016-10-16T14:32:24.149Z,1022.02
2016-10-16T14:32:49.717Z,1022.03
2016-10-16T14:33:15.285Z,1022.02
2016-10-16T14:33:40.843Z,1022.04
2016-10-16T14:34:06.432Z,1022.02
2016-10-16T14:34:32.001Z,1022.02
2016-10-16T14:34:57.564Z,1022.01
2016-10-16T14:35:23.147Z,1022
2016-10-16T14:35:48.874Z,1022.01
2016-10-16T14:36:15.051Z,1022
2016-10-16T14:36:40.629Z,1022.01
2016-10-16T14:37:06.195Z,1022
2016-10-16T14:37:31.747Z,1022.05
2016-10-16T14:37:57.368Z,1022.04
2016-10-16T14:38:23.825Z,1022.07
2016-10-16T14:38:49.379Z,1022.05
2016-10-16T14:39:14.943Z,1022.06
2016-10-16T14:39:40.526Z,1022.02
2016-10-16T14:40:06.125Z,1022.05
2016-10-16T14:40:31.754Z,1022.03
2016-10-16T14:40:57.313Z,1022.03
2016-10-16T14:41:22.942Z,1022.05
2016-10-16T14:41:48.520Z,1022.03
2016-10-16T14:42:14.091Z,1021.98
2016-10-16T14:42:39.667Z,1022.03
2016-10-16T14:43:05.235Z,1021.99
2016-10-16T14:43:30.803Z,1022.01
2016-10-16T14:43:56.415Z,1021.99
2016-10-16T14:44:21.975Z,1022.03
2016-10-16T14:44:47.573Z,1022.02
2016-10-16T14:45:13.148Z,1022.03
2016-10-16T14:46:16.473Z,1022.01
2016-10-16T14:46:42.051Z,1022
2016-10-16T14:47:07.646Z,1022.02
2016-10-16T14:47:33.207Z,1022.05
2016-10-16T14:47:58.801Z,1021.98
2016-10-16T14:48:24.380Z,1022.02
2016-10-16T14:48:49.931Z,1022.05
2016-10-16T14:49:15.476Z,1022.04
2016-10-16T14:50:18.651Z,1022
2016-10-16T14:50:44.220Z,1022.03
2016-10-16T14:51:09.874Z,1022.04
2016-10-16T14:51:35.434Z,1022.06
2016-10-16T14:52:01.020Z,1022.01
2016-10-16T14:52:26.644Z,1022.05
2016-10-16T14:52:52.209Z,1022.04
2016-10-16T14:53:17.781Z,1022.04
2016-10-16T14:53:44.194Z,1022.05
2016-10-16T14:54:09.768Z,1022.04
2016-10-16T14:54:35.321Z,1022.04
2016-10-16T14:55:00.899Z,1022.07
2016-10-16T14:56:14.329Z,1022.05
2016-10-16T14:56:39.910Z,1022.06
2016-10-16T14:57:05.461Z,1022.05
2016-10-16T14:57:31.035Z,1022.07
2016-10-16T14:57:56.796Z,1022.01
2016-10-16T14:58:22.285Z,1022.06
2016-10-16T14:58:47.857Z,1022.07
2016-10-16T14:59:14.144Z,1022.06
2016-10-16T14:59:39.727Z,1022.12
2016-10-16T15:00:05.420Z,1022.08
2016-10-16T15:00:30.996Z,1022.07
2016-10-16T15:00:56.582Z,1022.06
2016-10-16T15:01:22.178Z,1022.11
2016-10-16T15:01:47.754Z,1022.09
2016-10-16T15:02:13.320Z,1022.09
2016-10-16T15:02:38.902Z,1022.1
2016-10-16T15:03:04.490Z,1022.11
2016-10-16T15:03:30.100Z,1022.09
2016-10-16T15:03:55.711Z,1022.15
2016-10-16T15:04:22.246Z,1022.11
2016-10-16T15:04:47.792Z,1022.1
2016-10-16T15:05:13.403Z,1022.11
2016-10-16T15:05:38.991Z,1022.09
2016-10-16T15:06:04.610Z,1022.12
2016-10-16T15:06:30.176Z,1022.14
2016-10-16T15:06:55.839Z,1022.12
2016-10-16T15:07:22.006Z,1022.12
2016-10-16T15:07:47.580Z,1022.12
2016-10-16T15:08:13.814Z,1022.16
2016-10-16T15:08:40.222Z,1022.12
2016-10-16T15:09:05.804Z,1022.14
2016-10-16T15:09:31.459Z,1022.16
2016-10-16T15:09:57.012Z,1022.15
2016-10-16T15:10:22.599Z,1022.17
2016-10-16T15:10:48.179Z,1022.13
2016-10-16T15:11:13.885Z,1022.16
2016-10-16T15:11:39.428Z,1022.16
2016-10-16T15:12:04.999Z,1022.21
2016-10-16T15:12:30.573Z,1022.13
2016-10-16T15:12:56.119Z,1022.16
2016-10-16T15:13:21.720Z,1022.19
2016-10-16T15:13:47.302Z,1022.16
2016-10-16T15:14:12.923Z,1022.19
2016-10-16T15:14:38.496Z,1022.2
2016-10-16T15:15:04.368Z,1022.16
2016-10-16T15:16:17.726Z,1022.25
2016-10-16T15:16:43.286Z,1022.24
2016-10-16T15:17:08.963Z,1022.24
2016-10-16T15:17:34.597Z,1022.23
2016-10-16T15:18:00.193Z,1022.21
2016-10-16T15:18:25.795Z,1022.2
2016-10-16T15:18:51.377Z,1022.23
2016-10-16T15:20:09.908Z,1022.2
2016-10-16T15:20:35.617Z,1022.19
2016-10-16T15:21:01.186Z,1022.18
2016-10-16T15:21:26.755Z,1022.21
2016-10-16T15:21:52.310Z,1022.2
2016-10-16T15:22:17.919Z,1022.18
2016-10-16T15:22:43.465Z,1022.18
2016-10-16T15:23:09.046Z,1022.21
2016-10-16T15:23:34.633Z,1022.22
2016-10-16T15:24:00.224Z,1022.19
2016-10-16T15:24:25.839Z,1022.19
2016-10-16T15:24:51.478Z,1022.19
2016-10-16T15:25:17.082Z,1022.2
2016-10-16T15:26:15.283Z,1022.2
2016-10-16T15:26:40.844Z,1022.18
2016-10-16T15:27:06.397Z,1022.2
2016-10-16T15:28:14.897Z,1022.18
2016-10-16T15:28:40.574Z,1022.17
2016-10-16T15:29:06.148Z,1022.21
2016-10-16T15:29:31.720Z,1022.16
2016-10-16T15:29:57.291Z,1022.16
2016-10-16T15:30:22.982Z,1022.21
2016-10-16T15:30:48.594Z,1022.15
2016-10-16T15:31:14.148Z,1022.17
2016-10-16T15:31:39.796Z,1022.15
2016-10-16T15:32:05.395Z,1022.15
2016-10-16T15:32:30.955Z,1022.13
2016-10-16T15:32:56.531Z,1022.12
2016-10-16T15:33:22.110Z,1022.15
2016-10-16T15:33:47.677Z,1022.14
2016-10-16T15:34:13.242Z,1022.16
2016-10-16T15:34:39.016Z,1022.12
2016-10-16T15:35:04.593Z,1022.13
2016-10-16T15:36:12.958Z,1022.12
2016-10-16T15:36:38.518Z,1022.15
2016-10-16T15:37:04.086Z,1022.12
2016-10-16T15:37:29.625Z,1022.11
2016-10-16T15:37:55.215Z,1022.13
2016-10-16T15:38:20.785Z,1022.13
2016-10-16T15:38:46.373Z,1022.06
2016-10-16T15:39:11.925Z,1022.12
2016-10-16T15:39:37.474Z,1022.12
2016-10-16T15:40:03.255Z,1022.09
2016-10-16T15:40:29.050Z,1022.12
2016-10-16T15:40:54.620Z,1022.12
2016-10-16T15:41:20.197Z,1022.14
2016-10-16T15:41:45.751Z,1022.09
2016-10-16T15:42:11.487Z,1022.14
2016-10-16T15:42:37.033Z,1022.11
2016-10-16T15:43:02.606Z,1022.11
2016-10-16T15:43:28.685Z,1022.15
2016-10-16T15:43:54.335Z,1022.12
2016-10-16T15:44:19.903Z,1022.15
2016-10-16T15:44:45.473Z,1022.15
2016-10-16T15:45:11.028Z,1022.12
2016-10-16T15:45:36.608Z,1022.15
2016-10-16T15:46:02.169Z,1022.16
2016-10-16T15:46:27.911Z,1022.14
2016-10-16T15:46:53.578Z,1022.1
2016-10-16T15:47:19.280Z,1022.11
2016-10-16T15:47:45.031Z,1022.13
2016-10-16T15:48:10.615Z,1022.1
2016-10-16T15:48:36.224Z,1022.09
2016-10-16T15:49:02.215Z,1022.08
2016-10-16T15:49:29.129Z,1022.05
2016-10-16T15:49:54.803Z,1022.06
2016-10-16T15:50:20.573Z,1022.06
2016-10-16T15:50:46.199Z,1022.05
2016-10-16T15:51:11.870Z,1022.07
2016-10-16T15:51:37.590Z,1022.1
2016-10-16T15:52:03.423Z,1022.07
2016-10-16T15:52:29.230Z,1022.07
2016-10-16T15:52:55.191Z,1022.13
2016-10-16T15:53:21.459Z,1022.1
2016-10-16T15:53:47.046Z,1022.06
2016-10-16T15:54:13.315Z,1022.1
2016-10-16T15:54:38.978Z,1022.12
2016-10-16T15:55:04.554Z,1022.12
2016-10-16T15:55:30.153Z,1022.15
2016-10-16T15:55:55.754Z,1022.15
2016-10-16T15:56:21.345Z,1022.14
2016-10-16T15:56:46.897Z,1022.11
2016-10-16T15:57:12.465Z,1022.16
2016-10-16T15:59:13.831Z,1022.15
2016-10-16T15:59:39.867Z,1022.13
2016-10-16T16:00:05.456Z,1022.12
2016-10-16T16:01:13.732Z,1022.12
2016-10-16T16:01:39.374Z,1022.09
2016-10-16T16:02:04.933Z,1022.09
2016-10-16T16:02:30.507Z,1022.08
2016-10-16T16:02:56.105Z,1022.11
2016-10-16T16:03:21.673Z,1022.06
2016-10-16T16:03:47.247Z,1022.09
2016-10-16T16:04:12.824Z,1022.11
2016-10-16T16:05:11.026Z,1022.09
2016-10-16T16:05:36.590Z,1022.09
2016-10-16T16:06:02.166Z,1022.11
2016-10-16T16:06:27.737Z,1022.09
2016-10-16T16:06:53.318Z,1022.07
2016-10-16T16:07:18.890Z,1022.09
2016-10-16T16:07:44.509Z,1022.04
2016-10-16T16:08:10.095Z,1022.06
2016-10-16T16:08:35.670Z,1022.06
2016-10-16T16:09:01.322Z,1022.05
2016-10-16T16:09:27.066Z,1022.06
2016-10-16T16:09:52.637Z,1022.04
2016-10-16T16:10:18.250Z,1022.04
2016-10-16T16:11:16.785Z,1022
2016-10-16T16:11:42.365Z,1022.06
2016-10-16T16:12:07.937Z,1022.06
2016-10-16T16:12:33.585Z,1022.04
2016-10-16T16:12:59.160Z,1022.05
2016-10-16T16:13:24.758Z,1022.09
2016-10-16T16:13:50.355Z,1022.04
2016-10-16T16:14:15.956Z,1022.08
2016-10-16T16:14:41.511Z,1022.06
2016-10-16T16:15:07.134Z,1022.09
2016-10-16T16:15:32.628Z,1022.05
2016-10-16T16:15:58.200Z,1022.1
2016-10-16T16:16:23.833Z,1022.05
2016-10-16T16:16:49.394Z,1022.08
2016-10-16T16:17:14.959Z,1022.09
2016-10-16T16:17:40.593Z,1022.09
2016-10-16T16:18:06.171Z,1022.11
2016-10-16T16:18:31.805Z,1022.13
2016-10-16T16:18:57.366Z,1022.12
2016-10-16T16:19:22.928Z,1022.13
2016-10-16T16:19:48.518Z,1022.13
2016-10-16T16:20:14.091Z,1022.1
2016-10-16T16:20:39.699Z,1022.12
2016-10-16T16:21:05.423Z,1022.12
2016-10-16T16:21:37.528Z,1022.12
2016-10-16T16:22:04.169Z,1022.09
2016-10-16T16:22:29.916Z,1022.13
2016-10-16T16:22:55.566Z,1022.13
2016-10-16T16:23:21.128Z,1022.12
2016-10-16T16:23:46.821Z,1022.11
2016-10-16T16:24:12.488Z,1022.1
2016-10-16T16:24:38.387Z,1022.06
2016-10-16T16:25:03.860Z,1022.13
2016-10-16T16:25:29.442Z,1022.14
2016-10-16T16:25:55.701Z,1022.14
2016-10-16T16:26:21.433Z,1022.07
2016-10-16T16:26:47.475Z,1022.07
2016-10-16T16:27:13.069Z,1022.07
2016-10-16T16:27:38.680Z,1022.04
2016-10-16T16:28:04.847Z,1022.08
2016-10-16T16:28:30.403Z,1022.08
2016-10-16T16:28:56.663Z,1022.12
2016-10-16T16:29:22.243Z,1022.07
2016-10-16T16:29:48.389Z,1022.09
2016-10-16T16:30:13.985Z,1022.09
2016-10-16T16:30:39.545Z,1022.08
2016-10-16T16:31:05.863Z,1022.08
2016-10-16T16:31:31.507Z,1022.17
2016-10-16T16:31:57.837Z,1022.09
2016-10-16T16:32:23.231Z,1022.12
2016-10-16T16:34:19.447Z,1022.16
2016-10-16T16:34:45.393Z,1022.12
2016-10-16T16:35:11.033Z,1022.11
2016-10-16T16:35:36.718Z,1022.14
2016-10-16T16:36:03.150Z,1022.16
2016-10-16T16:36:29.593Z,1022.18
2016-10-16T16:36:55.620Z,1022.17
2016-10-16T16:38:14.283Z,1022.13
2016-10-16T16:38:39.865Z,1022.14
2016-10-16T16:39:05.422Z,1022.15
2016-10-16T16:39:30.973Z,1022.12
2016-10-16T16:39:56.518Z,1022.14
2016-10-16T16:40:22.100Z,1022.12
2016-10-16T16:40:47.674Z,1022.14
2016-10-16T16:41:13.354Z,1022.16
2016-10-16T16:41:39.040Z,1022.2
2016-10-16T16:42:04.675Z,1022.19
2016-10-16T16:42:30.456Z,1022.15
2016-10-16T16:42:56.089Z,1022.24
2016-10-16T16:43:21.743Z,1022.17
2016-10-16T16:43:47.294Z,1022.18
2016-10-16T16:44:13.014Z,1022.2
2016-10-16T16:44:38.691Z,1022.17
2016-10-16T16:45:04.393Z,1022.21
2016-10-16T16:45:30.282Z,1022.21
2016-10-16T16:45:55.908Z,1022.22
2016-10-16T16:46:21.476Z,1022.21
2016-10-16T16:46:47.173Z,1022.24
2016-10-16T16:47:12.784Z,1022.25
2016-10-16T16:47:38.463Z,1022.25
2016-10-16T16:48:04.025Z,1022.23
2016-10-16T16:48:29.603Z,1022.27
2016-10-16T16:48:55.244Z,1022.22
2016-10-16T16:49:20.898Z,1022.24
2016-10-16T16:49:46.480Z,1022.26
2016-10-16T16:50:12.082Z,1022.26
2016-10-16T16:50:37.605Z,1022.26
2016-10-16T16:51:03.256Z,1022.31
2016-10-16T16:51:28.807Z,1022.29
2016-10-16T16:51:54.377Z,1022.3
2016-10-16T16:52:19.932Z,1022.29
2016-10-16T16:52:45.586Z,1022.29
2016-10-16T16:53:11.207Z,1022.32
2016-10-16T16:53:36.978Z,1022.3
2016-10-16T16:54:02.509Z,1022.29
2016-10-16T16:54:28.145Z,1022.29
2016-10-16T16:54:53.720Z,1022.32
2016-10-16T16:55:19.334Z,1022.31
2016-10-16T16:55:44.936Z,1022.29
2016-10-16T16:56:10.479Z,1022.27
2016-10-16T16:56:36.140Z,1022.27
2016-10-16T16:57:01.699Z,1022.27
2016-10-16T16:57:27.309Z,1022.3
2016-10-16T16:57:52.908Z,1022.31
2016-10-16T16:58:18.987Z,1022.29
2016-10-16T16:59:26.674Z,1022.31
2016-10-16T16:59:52.344Z,1022.3
2016-10-16T17:00:18.033Z,1022.31
2016-10-16T17:00:43.610Z,1022.28
2016-10-16T17:01:09.294Z,1022.34
2016-10-16T17:01:34.899Z,1022.33
2016-10-16T17:02:00.684Z,1022.3
2016-10-16T17:02:26.429Z,1022.33
2016-10-16T17:02:52.124Z,1022.33
2016-10-16T17:03:18.163Z,1022.32
2016-10-16T17:03:43.862Z,1022.33
2016-10-16T17:04:09.599Z,1022.33
2016-10-16T17:04:35.826Z,1022.35
2016-10-16T17:05:01.309Z,1022.33
2016-10-16T17:05:27.273Z,1022.3
2016-10-16T17:05:52.854Z,1022.36
2016-10-16T17:06:19.102Z,1022.35